Time;durP1;ratioP1;P1;durP2;ratioP2;P2;SDS_P1;SDS_P2;PMS_P1;PMS_P2;Temp;Humidity;BMP_temperature;BMP_pressure;BME280_temperature;BME280_humidity;BME280_pressure;Samples;Min_cycle;Max_cycle;Signal;HPM_P1;HPM_P2
2022/01/01 00:01:42;;;;;;;;;;;11.30;99.90;;;;;;5025414;28;19931;-44
2022/01/01 00:04:09;;;;;;;;;;;11.20;99.90;;;;;;5042216;28;20031;-43
2022/01/01 00:06:36;;;;;;;;;;;11.30;99.90;;;;;;5036209;28;19925;-43
2022/01/01 00:09:03;;;;;;;;;;;11.30;99.90;;;;;;5049588;28;20443;-43
2022/01/01 00:11:30;;;;;;;;;;;11.30;99.90;;;;;;5033921;28;19960;-43
2022/01/01 00:13:57;;;;;;;;;;;11.20;99.90;;;;;;5032984;28;20385;-43
2022/01/01 00:16:25;;;;;;;;;;;11.20;99.90;;;;;;5030615;28;20457;-45
2022/01/01 00:18:52;;;;;;;;;;;11.30;99.90;;;;;;5015911;28;20056;-43
2022/01/01 00:21:18;;;;;;;;;;;11.20;99.90;;;;;;5034210;28;19984;-43
2022/01/01 00:23:45;;;;;;;;;;;11.20;99.90;;;;;;5016940;28;20004;-44
2022/01/01 00:26:12;;;;;;;;;;;11.20;99.90;;;;;;5033844;28;19979;-47
2022/01/01 00:28:39;;;;;;;;;;;11.20;99.90;;;;;;5016160;28;19961;-45
2022/01/01 00:31:07;;;;;;;;;;;11.20;99.90;;;;;;5033083;28;19925;-47
2022/01/01 00:33:35;;;;;;;;;;;11.20;99.90;;;;;;5033632;28;19948;-44
2022/01/01 00:36:02;;;;;;;;;;;11.10;99.90;;;;;;5015592;28;19971;-47
2022/01/01 00:38:28;;;;;;;;;;;11.20;99.90;;;;;;5033270;28;19925;-44
2022/01/01 00:40:55;;;;;;;;;;;11.10;99.90;;;;;;5033707;28;19925;-43
2022/01/01 00:43:24;;;;;;;;;;;11.10;99.90;;;;;;5014049;28;19933;-43
2022/01/01 00:45:51;;;;;;;;;;;11.10;99.90;;;;;;5015800;28;19925;-45
2022/01/01 00:48:17;;;;;;;;;;;11.10;99.90;;;;;;5032340;28;19977;-44
2022/01/01 00:50:45;;;;;;;;;;;11.10;99.90;;;;;;5015154;28;20658;-45
2022/01/01 00:53:12;;;;;;;;;;;11.10;99.90;;;;;;5015267;28;20041;-45
2022/01/01 00:55:39;;;;;;;;;;;11.20;99.90;;;;;;5032415;28;20328;-47
2022/01/01 00:58:06;;;;;;;;;;;11.10;99.90;;;;;;5032549;28;19932;-46
2022/01/01 01:00:32;;;;;;;;;;;11.10;99.90;;;;;;5032649;28;19925;-42
2022/01/01 01:02:59;;;;;;;;;;;11.10;99.90;;;;;;5048594;28;20004;-44
2022/01/01 01:05:26;;;;;;;;;;;11.10;99.90;;;;;;5033048;28;20447;-47
2022/01/01 01:07:54;;;;;;;;;;;11.10;99.90;;;;;;5032998;28;19925;-44
2022/01/01 01:10:21;;;;;;;;;;;11.00;99.90;;;;;;5032475;28;19925;-44
2022/01/01 01:12:48;;;;;;;;;;;11.00;99.90;;;;;;5032505;28;20385;-45
2022/01/01 01:15:17;;;;;;;;;;;11.00;99.90;;;;;;5014896;28;19929;-43
2022/01/01 01:17:45;;;;;;;;;;;11.00;99.90;;;;;;5015656;28;19936;-45
2022/01/01 01:20:12;;;;;;;;;;;10.90;99.90;;;;;;5015070;28;19925;-44
2022/01/01 01:22:39;;;;;;;;;;;10.80;99.90;;;;;;5014013;28;19943;-47
2022/01/01 01:25:07;;;;;;;;;;;10.90;99.90;;;;;;5031840;28;20366;-44
2022/01/01 01:27:35;;;;;;;;;;;10.80;99.90;;;;;;5032439;28;19941;-42
2022/01/01 01:30:02;;;;;;;;;;;10.80;99.90;;;;;;5047770;28;19931;-45
2022/01/01 01:32:29;;;;;;;;;;;10.80;99.90;;;;;;5032295;28;19925;-45
2022/01/01 01:34:56;;;;;;;;;;;10.80;99.90;;;;;;5032661;28;19969;-44
2022/01/01 01:37:23;;;;;;;;;;;10.80;99.90;;;;;;5029930;28;19925;-42
2022/01/01 01:39:49;;;;;;;;;;;10.80;99.90;;;;;;5047709;28;19925;-44
2022/01/01 01:42:18;;;;;;;;;;;10.80;99.90;;;;;;5032744;28;19925;-43
2022/01/01 01:44:47;;;;;;;;;;;10.80;99.90;;;;;;5030970;28;20019;-42
2022/01/01 01:47:16;;;;;;;;;;;10.80;99.90;;;;;;5045717;28;20415;-44
2022/01/01 01:49:43;;;;;;;;;;;10.80;99.90;;;;;;5014315;28;19979;-45
2022/01/01 01:52:09;;;;;;;;;;;10.80;99.90;;;;;;5014961;28;20373;-43
2022/01/01 01:54:36;;;;;;;;;;;10.80;99.90;;;;;;5047376;28;19925;-43
2022/01/01 01:57:03;;;;;;;;;;;10.80;99.90;;;;;;5032542;28;19925;-42
2022/01/01 01:59:32;;;;;;;;;;;10.70;99.90;;;;;;5014619;28;19925;-43
2022/01/01 02:01:58;;;;;;;;;;;10.70;99.90;;;;;;5014680;28;19925;-44
2022/01/01 02:04:25;;;;;;;;;;;10.70;99.90;;;;;;5032159;28;19925;-43
2022/01/01 02:06:52;;;;;;;;;;;10.70;99.90;;;;;;5014759;28;19986;-46
2022/01/01 02:09:19;;;;;;;;;;;10.70;99.90;;;;;;5032135;28;19932;-43
2022/01/01 02:11:46;;;;;;;;;;;10.60;99.90;;;;;;5034698;28;20015;-43
2022/01/01 02:14:22;;;;;;;;;;;10.60;99.90;;;;;;5051058;28;19937;-43
2022/01/01 02:19:32;;;;;;;;;;;10.60;99.90;;;;;;5033728;28;19926;-47
2022/01/01 02:22:04;;;;;;;;;;;10.60;99.90;;;;;;5017823;28;19941;-44
2022/01/01 02:24:31;;;;;;;;;;;10.60;99.90;;;;;;5035884;28;19932;-47
2022/01/01 02:26:57;;;;;;;;;;;10.60;99.90;;;;;;5035957;28;20285;-43
2022/01/01 02:29:24;;;;;;;;;;;10.60;99.90;;;;;;5035247;28;20038;-43
2022/01/01 02:31:51;;;;;;;;;;;10.70;99.90;;;;;;5036043;28;19932;-43
2022/01/01 02:34:18;;;;;;;;;;;10.70;99.90;;;;;;5018124;28;19964;-44
2022/01/01 02:36:45;;;;;;;;;;;10.70;99.90;;;;;;5017900;28;19925;-44
2022/01/01 02:39:14;;;;;;;;;;;10.70;99.90;;;;;;5035559;28;19932;-43
2022/01/01 02:41:41;;;;;;;;;;;10.80;99.90;;;;;;5018080;28;20445;-44
2022/01/01 02:44:08;;;;;;;;;;;10.80;99.90;;;;;;5036109;28;19925;-45
2022/01/01 02:46:35;;;;;;;;;;;10.80;99.90;;;;;;5018137;28;20030;-42
2022/01/01 02:49:02;;;;;;;;;;;10.80;99.90;;;;;;5035728;28;19932;-42
2022/01/01 02:51:28;;;;;;;;;;;10.80;99.90;;;;;;5035543;28;19940;-46
2022/01/01 02:53:55;;;;;;;;;;;10.80;99.90;;;;;;5018426;28;19925;-45
2022/01/01 02:56:23;;;;;;;;;;;10.80;99.90;;;;;;5035434;28;19925;-44
2022/01/01 02:58:50;;;;;;;;;;;10.90;99.90;;;;;;5034956;28;19939;-48
2022/01/01 03:01:17;;;;;;;;;;;10.80;99.90;;;;;;5035472;28;19972;-45
2022/01/01 03:03:44;;;;;;;;;;;10.80;99.90;;;;;;5035371;28;19925;-45
2022/01/01 03:06:11;;;;;;;;;;;10.80;99.90;;;;;;5018153;28;19980;-44
2022/01/01 03:08:38;;;;;;;;;;;10.80;99.90;;;;;;5035145;28;19925;-44
2022/01/01 03:11:05;;;;;;;;;;;10.80;99.90;;;;;;5034813;28;20344;-44
2022/01/01 03:13:33;;;;;;;;;;;10.80;99.90;;;;;;5034972;28;19925;-43
2022/01/01 03:16:00;;;;;;;;;;;10.80;99.90;;;;;;5034791;28;19925;-45
2022/01/01 03:18:27;;;;;;;;;;;10.80;99.90;;;;;;5018058;28;19978;-46
2022/01/01 03:20:54;;;;;;;;;;;10.80;99.90;;;;;;5034688;28;19940;-43
2022/01/01 03:23:20;;;;;;;;;;;10.80;99.90;;;;;;5017312;28;20558;-42
2022/01/01 03:25:47;;;;;;;;;;;10.80;99.90;;;;;;5035079;28;20296;-42
2022/01/01 03:28:14;;;;;;;;;;;10.80;99.90;;;;;;5017393;28;20000;-44
2022/01/01 03:30:42;;;;;;;;;;;10.80;99.90;;;;;;5035125;28;19931;-43
2022/01/01 03:33:09;;;;;;;;;;;10.80;99.90;;;;;;5035056;28;19925;-43
2022/01/01 03:35:35;;;;;;;;;;;10.80;99.90;;;;;;5049845;28;19929;-44
2022/01/01 03:38:02;;;;;;;;;;;10.80;99.90;;;;;;5034464;28;19928;-45
2022/01/01 03:40:29;;;;;;;;;;;10.80;99.90;;;;;;5017292;28;19975;-42
2022/01/01 03:42:56;;;;;;;;;;;10.80;99.90;;;;;;5034078;28;20394;-44
2022/01/01 03:45:22;;;;;;;;;;;10.80;99.90;;;;;;5034929;28;19929;-41
2022/01/01 03:47:51;;;;;;;;;;;10.70;99.90;;;;;;5034673;28;20015;-45
2022/01/01 03:50:18;;;;;;;;;;;10.80;99.90;;;;;;5034314;28;19925;-46
2022/01/01 03:52:45;;;;;;;;;;;10.70;99.90;;;;;;5034336;28;20147;-42
2022/01/01 03:55:12;;;;;;;;;;;10.70;99.90;;;;;;5033597;28;20289;-43
2022/01/01 03:57:39;;;;;;;;;;;10.70;99.90;;;;;;5016286;28;19929;-42
2022/01/01 04:00:07;;;;;;;;;;;10.80;99.90;;;;;;5034171;28;20401;-41
2022/01/01 04:02:34;;;;;;;;;;;10.80;99.90;;;;;;5034367;28;19987;-43
2022/01/01 04:05:03;;;;;;;;;;;10.70;99.90;;;;;;5034321;28;19979;-43
2022/01/01 04:07:30;;;;;;;;;;;10.70;99.90;;;;;;5032806;28;20020;-42
2022/01/01 04:09:57;;;;;;;;;;;10.70;99.90;;;;;;5034293;28;20341;-43
2022/01/01 04:12:24;;;;;;;;;;;10.80;99.90;;;;;;5006673;28;20016;-43
2022/01/01 04:14:50;;;;;;;;;;;10.70;99.90;;;;;;5016641;28;20016;-46
2022/01/01 04:17:17;;;;;;;;;;;10.80;99.90;;;;;;5034155;28;19932;-43
2022/01/01 04:19:44;;;;;;;;;;;10.80;99.90;;;;;;5016495;28;20389;-42
2022/01/01 04:22:12;;;;;;;;;;;10.80;99.90;;;;;;5033871;28;20384;-42
2022/01/01 04:24:39;;;;;;;;;;;10.80;99.90;;;;;;5033715;28;19972;-42
2022/01/01 04:27:06;;;;;;;;;;;10.80;99.90;;;;;;5033692;28;20645;-44
2022/01/01 04:29:33;;;;;;;;;;;10.80;99.90;;;;;;5016491;28;20022;-41
2022/01/01 04:32:00;;;;;;;;;;;10.80;99.90;;;;;;5033544;28;20008;-42
2022/01/01 04:34:27;;;;;;;;;;;10.80;99.90;;;;;;5015174;28;19960;-44
2022/01/01 04:37:01;;;;;;;;;;;10.80;99.90;;;;;;5016545;28;19976;-44
2022/01/01 04:39:29;;;;;;;;;;;10.80;99.90;;;;;;5033631;28;19925;-45
2022/01/01 04:41:56;;;;;;;;;;;10.80;99.90;;;;;;5015749;28;20347;-43
2022/01/01 04:44:22;;;;;;;;;;;10.90;99.90;;;;;;5016269;28;20012;-45
2022/01/01 04:46:49;;;;;;;;;;;10.90;99.90;;;;;;5033133;28;19937;-42
2022/01/01 04:49:16;;;;;;;;;;;10.90;99.90;;;;;;5016079;28;19929;-45
2022/01/01 04:51:43;;;;;;;;;;;10.90;99.90;;;;;;5033154;28;19931;-42
2022/01/01 04:54:15;;;;;;;;;;;10.90;99.90;;;;;;5015142;28;19972;-44
2022/01/01 04:56:45;;;;;;;;;;;10.90;99.90;;;;;;5015025;28;19929;-44
2022/01/01 04:59:12;;;;;;;;;;;11.00;99.90;;;;;;5033468;28;19932;-42
2022/01/01 05:01:39;;;;;;;;;;;10.90;99.90;;;;;;5035639;28;20042;-42
2022/01/01 05:04:05;;;;;;;;;;;10.90;99.90;;;;;;5032444;28;19935;-42
2022/01/01 05:06:32;;;;;;;;;;;10.90;99.90;;;;;;5015869;28;20008;-42
2022/01/01 05:08:59;;;;;;;;;;;10.90;99.90;;;;;;5032264;28;19931;-43
2022/01/01 05:11:26;;;;;;;;;;;11.00;99.90;;;;;;5016011;28;19925;-43
2022/01/01 05:13:54;;;;;;;;;;;11.00;99.90;;;;;;5015059;28;19956;-46
2022/01/01 05:16:21;;;;;;;;;;;11.00;99.90;;;;;;5033111;28;19972;-43
2022/01/01 05:18:48;;;;;;;;;;;11.00;99.90;;;;;;5032834;28;20364;-44
2022/01/01 05:21:14;;;;;;;;;;;11.00;99.90;;;;;;5031440;28;20340;-45
2022/01/01 05:23:41;;;;;;;;;;;11.00;99.90;;;;;;5014818;28;19925;-46
2022/01/01 05:26:08;;;;;;;;;;;11.00;99.90;;;;;;5031824;28;20003;-43
2022/01/01 05:28:35;;;;;;;;;;;11.00;99.90;;;;;;5032439;28;19925;-42
2022/01/01 05:31:04;;;;;;;;;;;11.00;99.90;;;;;;5032550;28;19969;-46
2022/01/01 05:33:30;;;;;;;;;;;11.00;99.90;;;;;;5048180;28;20004;-46
2022/01/01 05:35:57;;;;;;;;;;;11.00;99.90;;;;;;5032548;28;19933;-46
2022/01/01 05:38:24;;;;;;;;;;;11.00;99.90;;;;;;5014287;28;19933;-43
2022/01/01 05:40:51;;;;;;;;;;;11.00;99.90;;;;;;5046686;28;20451;-42
2022/01/01 05:43:17;;;;;;;;;;;11.00;99.90;;;;;;5032212;28;20381;-43
2022/01/01 05:45:44;;;;;;;;;;;11.00;99.90;;;;;;5014997;28;19972;-42
2022/01/01 05:48:12;;;;;;;;;;;11.00;99.90;;;;;;5015334;28;19957;-45
2022/01/01 05:50:39;;;;;;;;;;;11.00;99.90;;;;;;5032646;28;19932;-44
2022/01/01 05:53:06;;;;;;;;;;;11.00;99.90;;;;;;5014910;28;20023;-44
2022/01/01 05:55:33;;;;;;;;;;;11.00;99.90;;;;;;5032466;28;19933;-42
2022/01/01 05:57:59;;;;;;;;;;;11.00;99.90;;;;;;5015529;28;19925;-45
2022/01/01 06:00:26;;;;;;;;;;;11.10;99.90;;;;;;5031982;28;20015;-47
2022/01/01 06:02:53;;;;;;;;;;;11.10;99.90;;;;;;5032037;28;20026;-43
2022/01/01 06:05:21;;;;;;;;;;;11.00;99.90;;;;;;5047288;28;20377;-43
2022/01/01 06:07:48;;;;;;;;;;;11.10;99.90;;;;;;5047794;28;19929;-44
2022/01/01 06:10:15;;;;;;;;;;;11.10;99.90;;;;;;5033086;28;20304;-45
2022/01/01 06:12:41;;;;;;;;;;;11.10;99.90;;;;;;5014723;28;19972;-46
2022/01/01 06:15:09;;;;;;;;;;;11.10;99.90;;;;;;5031371;28;19972;-43
2022/01/01 06:17:35;;;;;;;;;;;11.10;99.90;;;;;;5032328;28;19925;-44
2022/01/01 06:20:02;;;;;;;;;;;11.10;99.90;;;;;;5032309;28;19933;-45
2022/01/01 06:22:30;;;;;;;;;;;11.10;99.90;;;;;;5031845;28;19979;-43
2022/01/01 06:24:57;;;;;;;;;;;11.10;99.90;;;;;;5032397;28;19932;-43
2022/01/01 06:27:24;;;;;;;;;;;11.10;99.90;;;;;;5032274;28;20292;-43
2022/01/01 06:29:51;;;;;;;;;;;11.20;99.90;;;;;;5032066;28;19971;-43
2022/01/01 06:32:18;;;;;;;;;;;11.20;99.90;;;;;;5039463;28;19932;-43
2022/01/01 06:34:44;;;;;;;;;;;11.20;99.90;;;;;;5014748;28;20274;-42
2022/01/01 06:37:11;;;;;;;;;;;11.20;99.90;;;;;;5031496;28;20373;-43
2022/01/01 06:39:39;;;;;;;;;;;11.20;99.90;;;;;;5015138;28;20007;-44
2022/01/01 06:42:06;;;;;;;;;;;11.20;99.90;;;;;;5047457;28;20024;-46
2022/01/01 06:44:33;;;;;;;;;;;11.20;99.90;;;;;;5014626;28;19926;-42
2022/01/01 06:47:00;;;;;;;;;;;11.20;99.90;;;;;;5032002;28;20395;-43
2022/01/01 06:49:26;;;;;;;;;;;11.30;99.90;;;;;;5014043;28;19983;-42
2022/01/01 06:51:53;;;;;;;;;;;11.30;99.90;;;;;;5026087;28;19964;-43
2022/01/01 06:54:20;;;;;;;;;;;11.30;99.90;;;;;;5014173;28;19925;-45
2022/01/01 06:56:48;;;;;;;;;;;11.30;99.90;;;;;;5033603;28;19929;-44
2022/01/01 06:59:15;;;;;;;;;;;11.30;99.90;;;;;;5035962;28;20357;-43
2022/01/01 07:01:42;;;;;;;;;;;11.30;99.90;;;;;;5034863;28;20332;-46
2022/01/01 07:04:08;;;;;;;;;;;11.30;99.90;;;;;;5050701;28;19929;-42
2022/01/01 07:06:35;;;;;;;;;;;11.30;99.90;;;;;;5035125;28;20020;-45
2022/01/01 07:09:02;;;;;;;;;;;11.30;99.90;;;;;;5018126;28;19979;-46
2022/01/01 07:11:29;;;;;;;;;;;11.30;99.90;;;;;;5035265;28;20428;-44
2022/01/01 07:13:57;;;;;;;;;;;11.30;99.90;;;;;;5017294;28;19955;-42
2022/01/01 07:16:24;;;;;;;;;;;11.30;99.90;;;;;;5050356;28;19925;-46
2022/01/01 07:18:50;;;;;;;;;;;11.30;99.90;;;;;;5050089;28;19931;-46
2022/01/01 07:21:17;;;;;;;;;;;11.40;99.90;;;;;;5034800;28;19979;-46
2022/01/01 07:23:44;;;;;;;;;;;11.40;99.90;;;;;;5017683;28;20010;-45
2022/01/01 07:26:11;;;;;;;;;;;11.40;99.90;;;;;;5027423;28;19925;-44
2022/01/01 07:28:37;;;;;;;;;;;11.40;99.90;;;;;;5016919;28;20374;-46
2022/01/01 07:31:05;;;;;;;;;;;11.40;99.90;;;;;;5034641;28;19947;-44
2022/01/01 07:33:32;;;;;;;;;;;11.40;99.90;;;;;;5034529;28;19925;-44
2022/01/01 07:35:59;;;;;;;;;;;11.40;99.90;;;;;;5049925;28;19924;-46
2022/01/01 07:38:26;;;;;;;;;;;11.40;99.90;;;;;;5017304;28;20015;-43
2022/01/01 07:40:53;;;;;;;;;;;11.40;99.90;;;;;;5034073;28;20411;-44
2022/01/01 07:43:20;;;;;;;;;;;11.50;99.90;;;;;;5034453;28;19925;-45
2022/01/01 07:45:47;;;;;;;;;;;11.40;99.90;;;;;;5017439;28;20019;-44
2022/01/01 07:48:15;;;;;;;;;;;11.50;99.90;;;;;;5034343;28;19925;-44
2022/01/01 07:50:42;;;;;;;;;;;11.50;99.90;;;;;;5015953;28;19968;-44
2022/01/01 07:53:09;;;;;;;;;;;11.60;99.90;;;;;;5017865;28;19960;-46
2022/01/01 07:55:36;;;;;;;;;;;11.60;99.90;;;;;;5016400;28;20016;-42
2022/01/01 07:58:05;;;;;;;;;;;11.60;99.90;;;;;;5016457;28;19925;-46
2022/01/01 08:00:31;;;;;;;;;;;11.60;99.90;;;;;;5047799;28;19932;-43
2022/01/01 08:02:58;;;;;;;;;;;11.60;99.90;;;;;;5032126;28;19925;-45
2022/01/01 08:05:26;;;;;;;;;;;11.70;99.90;;;;;;5016986;28;19931;-43
2022/01/01 08:07:53;;;;;;;;;;;11.70;99.90;;;;;;5011289;28;19925;-42
2022/01/01 08:10:23;;;;;;;;;;;11.70;99.90;;;;;;5034243;28;19928;-44
2022/01/01 08:12:49;;;;;;;;;;;11.70;99.90;;;;;;5033773;28;19925;-44
2022/01/01 08:15:16;;;;;;;;;;;11.70;99.90;;;;;;5033037;28;19972;-43
2022/01/01 08:17:43;;;;;;;;;;;11.70;99.90;;;;;;5016625;28;19933;-43
2022/01/01 08:20:11;;;;;;;;;;;11.70;99.90;;;;;;5033573;28;19925;-45
2022/01/01 08:22:39;;;;;;;;;;;11.80;99.90;;;;;;5016842;28;20027;-43
2022/01/01 08:25:06;;;;;;;;;;;11.80;99.90;;;;;;5016705;28;19929;-45
2022/01/01 08:27:33;;;;;;;;;;;11.80;99.90;;;;;;5033446;28;19968;-43
2022/01/01 08:29:59;;;;;;;;;;;11.80;99.90;;;;;;5048928;28;19965;-44
2022/01/01 08:32:26;;;;;;;;;;;11.80;99.90;;;;;;5032444;28;19925;-44
2022/01/01 08:34:53;;;;;;;;;;;11.80;99.90;;;;;;5016240;28;19991;-45
2022/01/01 08:37:20;;;;;;;;;;;11.80;99.90;;;;;;5048206;28;19936;-44
2022/01/01 08:39:48;;;;;;;;;;;11.80;99.90;;;;;;5008935;28;19987;-43
2022/01/01 08:42:15;;;;;;;;;;;11.80;99.90;;;;;;5013194;28;20378;-43
2022/01/01 08:44:42;;;;;;;;;;;11.80;99.90;;;;;;5030526;28;19972;-45
2022/01/01 08:47:09;;;;;;;;;;;11.80;99.90;;;;;;5032564;28;19975;-45
2022/01/01 08:49:35;;;;;;;;;;;11.80;99.90;;;;;;5032235;28;19979;-45
2022/01/01 08:52:02;;;;;;;;;;;11.80;99.90;;;;;;5033024;28;19931;-46
2022/01/01 08:54:29;;;;;;;;;;;11.80;99.90;;;;;;5047809;28;20385;-46
2022/01/01 08:56:57;;;;;;;;;;;11.80;99.90;;;;;;5030070;28;19925;-43
2022/01/01 08:59:24;;;;;;;;;;;11.90;99.90;;;;;;5046419;28;20020;-45
2022/01/01 09:01:51;;;;;;;;;;;11.90;99.90;;;;;;5030153;28;19925;-44
2022/01/01 09:04:17;;;;;;;;;;;11.90;99.90;;;;;;5030807;28;20413;-46
2022/01/01 09:06:44;;;;;;;;;;;11.90;99.90;;;;;;5032617;28;20443;-43
2022/01/01 09:09:11;;;;;;;;;;;12.00;99.90;;;;;;5040486;28;19947;-45
2022/01/01 09:11:38;;;;;;;;;;;12.00;99.90;;;;;;5031185;28;19925;-45
2022/01/01 09:14:06;;;;;;;;;;;12.00;99.90;;;;;;5026256;28;19976;-47
2022/01/01 09:16:33;;;;;;;;;;;12.00;99.90;;;;;;5032651;28;19998;-45
2022/01/01 09:19:00;;;;;;;;;;;12.00;99.90;;;;;;5014728;28;19968;-43
2022/01/01 09:21:27;;;;;;;;;;;12.10;99.90;;;;;;5014999;28;20388;-46
2022/01/01 09:23:54;;;;;;;;;;;12.10;99.90;;;;;;5014145;28;20389;-46
2022/01/01 09:26:20;;;;;;;;;;;12.10;99.90;;;;;;5032717;28;19925;-48
2022/01/01 09:28:47;;;;;;;;;;;12.10;99.90;;;;;;5031196;28;20008;-46
2022/01/01 09:31:15;;;;;;;;;;;12.10;99.90;;;;;;5032174;28;19925;-44
2022/01/01 09:33:42;;;;;;;;;;;12.10;99.90;;;;;;5015120;28;20034;-45
2022/01/01 09:36:10;;;;;;;;;;;12.20;99.90;;;;;;5014677;28;19931;-48
2022/01/01 09:38:37;;;;;;;;;;;12.20;99.90;;;;;;5032416;28;20274;-46
2022/01/01 09:41:03;;;;;;;;;;;12.20;99.90;;;;;;5014972;28;19964;-48
2022/01/01 09:43:31;;;;;;;;;;;12.20;99.90;;;;;;5032020;28;19960;-46
2022/01/01 09:45:58;;;;;;;;;;;12.20;99.90;;;;;;5031859;28;19964;-45
2022/01/01 09:48:26;;;;;;;;;;;12.20;99.90;;;;;;5015381;28;20012;-48
2022/01/01 09:50:54;;;;;;;;;;;12.30;99.90;;;;;;5031683;28;19971;-48
2022/01/01 09:53:22;;;;;;;;;;;12.30;99.90;;;;;;5031142;28;20296;-43
2022/01/01 09:55:49;;;;;;;;;;;12.30;99.90;;;;;;5011642;28;19933;-46
2022/01/01 09:58:16;;;;;;;;;;;12.30;99.90;;;;;;5025887;28;19980;-48
2022/01/01 10:00:43;;;;;;;;;;;12.30;99.90;;;;;;5041153;28;20012;-48
2022/01/01 10:03:11;;;;;;;;;;;12.30;99.90;;;;;;5029461;28;20347;-45
2022/01/01 10:05:40;;;;;;;;;;;12.40;99.90;;;;;;5026009;28;19947;-46
2022/01/01 10:08:08;;;;;;;;;;;12.40;99.90;;;;;;5025777;28;19925;-47
2022/01/01 10:10:35;;;;;;;;;;;12.40;99.90;;;;;;5030852;28;19941;-45
2022/01/01 10:13:11;;;;;;;;;;;12.50;99.90;;;;;;5013679;28;20373;-45
2022/01/01 10:15:38;;;;;;;;;;;12.40;99.90;;;;;;5030974;28;19933;-47
2022/01/01 10:18:07;;;;;;;;;;;12.50;99.90;;;;;;5032413;28;20333;-48
2022/01/01 10:20:35;;;;;;;;;;;12.50;99.90;;;;;;5045752;28;19933;-44
2022/01/01 10:23:11;;;;;;;;;;;12.50;99.90;;;;;;5031732;28;20008;-47
2022/01/01 10:28:22;;;;;;;;;;;12.40;99.90;;;;;;5014619;28;19925;-47
2022/01/01 10:30:49;;;;;;;;;;;12.50;99.90;;;;;;5031053;28;19933;-48
2022/01/01 10:33:16;;;;;;;;;;;12.50;99.90;;;;;;5035128;28;19925;-44
2022/01/01 10:35:43;;;;;;;;;;;12.50;99.90;;;;;;5017755;28;19987;-45
2022/01/01 10:38:12;;;;;;;;;;;12.50;99.90;;;;;;5034738;28;19979;-46
2022/01/01 10:40:39;;;;;;;;;;;12.50;99.90;;;;;;5035432;28;20344;-45
2022/01/01 10:43:06;;;;;;;;;;;12.50;99.90;;;;;;5018327;28;19968;-46
2022/01/01 10:45:34;;;;;;;;;;;12.50;99.90;;;;;;5035515;28;19925;-45
2022/01/01 10:48:14;;;;;;;;;;;12.50;99.90;;;;;;5035037;28;19929;-44
2022/01/01 10:50:41;;;;;;;;;;;12.50;99.90;;;;;;5034456;28;19929;-48
2022/01/01 10:53:13;;;;;;;;;;;12.50;99.90;;;;;;5034484;28;19986;-45
2022/01/01 10:55:43;;;;;;;;;;;12.50;99.90;;;;;;5011430;28;19936;-43
2022/01/01 10:58:10;;;;;;;;;;;12.60;99.90;;;;;;5015317;28;20407;-47
2022/01/01 11:00:40;;;;;;;;;;;12.60;99.90;;;;;;5012939;28;19926;-46
2022/01/01 11:03:08;;;;;;;;;;;12.60;99.90;;;;;;5014218;28;19960;-46
2022/01/01 11:05:35;;;;;;;;;;;12.60;99.90;;;;;;5013825;28;20009;-45
2022/01/01 11:08:03;;;;;;;;;;;12.60;99.90;;;;;;5013673;28;20411;-45
2022/01/01 11:10:31;;;;;;;;;;;12.60;99.90;;;;;;5014549;28;19925;-45
2022/01/01 11:12:59;;;;;;;;;;;12.60;99.90;;;;;;5013127;28;20370;-46
2022/01/01 11:15:26;;;;;;;;;;;12.60;99.90;;;;;;5044659;28;19932;-48
2022/01/01 11:17:53;;;;;;;;;;;12.70;99.90;;;;;;5011526;28;19926;-49
2022/01/01 11:20:20;;;;;;;;;;;12.60;99.90;;;;;;5014923;28;19960;-48
2022/01/01 11:22:46;;;;;;;;;;;12.70;99.90;;;;;;5013556;28;19933;-46
2022/01/01 11:25:13;;;;;;;;;;;12.70;99.90;;;;;;5013302;28;20352;-47
2022/01/01 11:27:43;;;;;;;;;;;12.70;99.90;;;;;;5014334;28;19933;-46
2022/01/01 11:30:11;;;;;;;;;;;12.70;99.90;;;;;;5013877;28;20421;-44
2022/01/01 11:32:42;;;;;;;;;;;12.70;99.90;;;;;;5015045;28;20011;-48
2022/01/01 11:35:12;;;;;;;;;;;12.60;99.90;;;;;;5012356;28;19925;-45
2022/01/01 11:37:45;;;;;;;;;;;12.70;99.90;;;;;;5013186;28;19995;-46
2022/01/01 11:40:13;;;;;;;;;;;12.70;99.90;;;;;;5013011;28;19968;-46
2022/01/01 11:42:45;;;;;;;;;;;12.70;99.90;;;;;;5012364;28;20393;-45
2022/01/01 11:45:13;;;;;;;;;;;12.70;99.90;;;;;;5013543;28;19985;-47
2022/01/01 11:47:40;;;;;;;;;;;12.70;99.90;;;;;;5046312;28;19968;-48
2022/01/01 11:50:07;;;;;;;;;;;12.70;99.90;;;;;;5013494;28;20278;-46
2022/01/01 11:52:34;;;;;;;;;;;12.80;99.90;;;;;;5013371;28;19925;-44
2022/01/01 11:55:02;;;;;;;;;;;12.80;99.90;;;;;;5027990;28;20004;-44
2022/01/01 11:57:30;;;;;;;;;;;12.80;99.90;;;;;;5034103;28;20336;-45
2022/01/01 12:00:02;;;;;;;;;;;12.80;99.90;;;;;;5033493;28;19925;-45
2022/01/01 12:02:33;;;;;;;;;;;12.80;99.90;;;;;;5032857;28;19931;-45
2022/01/01 12:05:10;;;;;;;;;;;12.90;99.90;;;;;;5034158;28;19925;-45
2022/01/01 12:07:43;;;;;;;;;;;12.80;99.90;;;;;;5033935;28;19925;-48
2022/01/01 12:10:12;;;;;;;;;;;12.90;99.90;;;;;;5016271;28;19929;-45
2022/01/01 12:12:40;;;;;;;;;;;12.90;99.90;;;;;;5016245;28;19925;-48
2022/01/01 12:15:08;;;;;;;;;;;12.80;99.90;;;;;;5049975;28;19925;-43
2022/01/01 12:17:40;;;;;;;;;;;12.90;99.90;;;;;;5015975;28;19925;-46
2022/01/01 12:20:08;;;;;;;;;;;12.90;99.90;;;;;;5030735;28;19939;-45
2022/01/01 12:22:36;;;;;;;;;;;12.90;99.90;;;;;;5049409;28;19925;-44
2022/01/01 12:25:03;;;;;;;;;;;12.90;99.90;;;;;;5014853;28;20344;-44
2022/01/01 12:27:30;;;;;;;;;;;12.90;99.90;;;;;;5045832;28;19929;-45
2022/01/01 12:30:04;;;;;;;;;;;12.90;99.90;;;;;;5032886;28;19967;-45
2022/01/01 12:32:38;;;;;;;;;;;12.90;99.90;;;;;;5016050;28;19929;-48
2022/01/01 12:35:08;;;;;;;;;;;12.90;99.90;;;;;;5033596;28;19995;-43
2022/01/01 12:37:35;;;;;;;;;;;12.90;99.90;;;;;;5014581;28;20289;-44
2022/01/01 12:40:03;;;;;;;;;;;12.90;99.90;;;;;;5015730;28;19925;-45
2022/01/01 12:42:30;;;;;;;;;;;12.90;99.90;;;;;;5048005;28;19926;-46
2022/01/01 12:44:58;;;;;;;;;;;12.90;99.90;;;;;;5030433;28;19985;-44
2022/01/01 12:47:25;;;;;;;;;;;12.90;99.90;;;;;;5033251;28;19925;-45
2022/01/01 12:49:53;;;;;;;;;;;12.80;99.90;;;;;;5033245;28;19925;-45
2022/01/01 12:52:22;;;;;;;;;;;12.90;99.90;;;;;;5033307;28;19991;-45
2022/01/01 12:54:50;;;;;;;;;;;12.90;99.90;;;;;;5015037;28;20380;-45
2022/01/01 12:57:17;;;;;;;;;;;12.90;99.90;;;;;;5015344;28;20401;-45
2022/01/01 12:59:47;;;;;;;;;;;12.90;99.90;;;;;;5032253;28;20270;-44
2022/01/01 13:02:14;;;;;;;;;;;12.90;99.90;;;;;;5008611;28;19925;-43
2022/01/01 13:04:41;;;;;;;;;;;12.90;99.90;;;;;;5033300;28;19933;-45
2022/01/01 13:07:09;;;;;;;;;;;12.80;99.90;;;;;;5015267;28;19987;-44
2022/01/01 13:09:36;;;;;;;;;;;12.90;99.90;;;;;;5031648;28;19925;-44
2022/01/01 13:12:03;;;;;;;;;;;12.90;99.90;;;;;;5047477;28;19932;-45
2022/01/01 13:14:30;;;;;;;;;;;13.00;99.90;;;;;;5014101;28;19929;-44
2022/01/01 13:16:57;;;;;;;;;;;13.00;99.90;;;;;;5031242;28;20356;-43
2022/01/01 13:19:24;;;;;;;;;;;13.10;99.90;;;;;;5030450;28;19971;-44
2022/01/01 13:21:52;;;;;;;;;;;13.00;99.90;;;;;;5014476;28;19925;-46
2022/01/01 13:24:20;;;;;;;;;;;13.10;99.90;;;;;;5014721;28;19925;-43
2022/01/01 13:26:47;;;;;;;;;;;13.00;99.90;;;;;;5032746;28;19964;-43
2022/01/01 13:29:14;;;;;;;;;;;13.10;99.90;;;;;;5015271;28;20015;-44
2022/01/01 13:31:40;;;;;;;;;;;13.00;99.90;;;;;;5048653;28;19935;-43
2022/01/01 13:34:11;;;;;;;;;;;13.00;99.90;;;;;;5032389;28;19972;-44
2022/01/01 13:36:38;;;;;;;;;;;13.00;99.90;;;;;;5015193;28;19971;-44
2022/01/01 13:39:06;;;;;;;;;;;13.00;99.90;;;;;;5013901;28;19925;-44
2022/01/01 13:41:35;;;;;;;;;;;12.90;99.90;;;;;;5014651;28;20495;-45
2022/01/01 13:44:16;;;;;;;;;;;12.90;99.90;;;;;;5014708;28;19925;-44
2022/01/01 13:46:42;;;;;;;;;;;12.90;99.90;;;;;;5026336;28;19925;-43
2022/01/01 13:49:11;;;;;;;;;;;12.90;99.90;;;;;;5032044;28;20020;-44
2022/01/01 13:51:37;;;;;;;;;;;12.90;99.90;;;;;;5032466;28;20347;-44
2022/01/01 13:54:05;;;;;;;;;;;12.80;99.90;;;;;;5014702;28;20002;-45
2022/01/01 13:56:32;;;;;;;;;;;12.80;99.90;;;;;;5031448;28;19967;-44
2022/01/01 13:59:00;;;;;;;;;;;12.80;99.90;;;;;;5032468;28;19971;-44
2022/01/01 14:01:27;;;;;;;;;;;12.80;99.90;;;;;;5031825;28;19925;-45
2022/01/01 14:03:54;;;;;;;;;;;12.80;99.90;;;;;;5031341;28;19932;-44
2022/01/01 14:06:23;;;;;;;;;;;12.80;99.90;;;;;;5033084;28;19935;-44
2022/01/01 14:08:57;;;;;;;;;;;12.80;99.90;;;;;;5019133;28;20016;-44
2022/01/01 14:11:27;;;;;;;;;;;12.80;99.90;;;;;;5018992;28;19925;-45
2022/01/01 14:14:03;;;;;;;;;;;12.80;99.90;;;;;;5018551;28;19925;-43
2022/01/01 14:16:30;;;;;;;;;;;12.80;99.90;;;;;;5018611;28;20357;-45
2022/01/01 14:18:57;;;;;;;;;;;12.80;99.90;;;;;;5033311;28;19925;-44
2022/01/01 14:21:24;;;;;;;;;;;12.80;99.90;;;;;;5014573;28;19932;-44
2022/01/01 14:23:54;;;;;;;;;;;12.80;99.90;;;;;;5035405;28;19925;-43